createdAt,value
2023-03-15T00:00:58.448Z,99118.03
2023-03-15T00:03:25.096Z,99119.31
2023-03-15T00:05:51.745Z,99107.31
2023-03-15T00:08:19.000Z,99115.44
2023-03-15T00:10:46.974Z,99120.94
2023-03-15T00:13:15.438Z,99102.94
2023-03-15T00:15:50.564Z,99114.31
2023-03-15T00:18:19.020Z,99110.88
2023-03-15T00:20:45.787Z,99120.59
2023-03-15T00:23:12.395Z,99117.34
2023-03-15T00:25:39.255Z,99107.63
2023-03-15T00:28:06.480Z,99114.59
2023-03-15T00:30:33.393Z,99115.25
2023-03-15T00:32:59.885Z,99107.66
2023-03-15T00:35:26.662Z,99118.19
2023-03-15T00:37:56.582Z,99097.09
2023-03-15T00:40:24.263Z,99121.25
2023-03-15T00:42:51.107Z,99110.72
2023-03-15T00:45:21.867Z,99102.09
2023-03-15T00:47:53.637Z,99105.66
2023-03-15T00:50:21.593Z,99109.25
2023-03-15T00:52:48.889Z,99108.09
2023-03-15T00:55:17.846Z,99107.94
2023-03-15T00:57:45.961Z,99117.00
2023-03-15T01:00:16.587Z,99117.13
2023-03-15T01:02:43.149Z,99118.25
2023-03-15T01:05:10.160Z,99105.31
2023-03-15T01:07:36.812Z,99119.44
2023-03-15T01:10:05.731Z,99117.81
2023-03-15T01:12:34.141Z,99114.09
2023-03-15T01:15:04.580Z,99114.09
2023-03-15T01:17:31.590Z,99118.34
2023-03-15T01:19:59.182Z,99110.88
2023-03-15T01:22:27.155Z,99098.53
2023-03-15T01:24:53.652Z,99120.22
2023-03-15T01:27:20.159Z,99114.03
2023-03-15T01:29:46.701Z,99111.44
2023-03-15T01:32:13.420Z,99113.06
2023-03-15T01:34:40.164Z,99116.59
2023-03-15T01:37:06.878Z,99116.09
2023-03-15T01:39:33.412Z,99120.00
2023-03-15T01:42:00.013Z,99112.84
2023-03-15T01:44:49.010Z,99117.88
2023-03-15T01:47:15.520Z,99119.66
2023-03-15T01:49:44.648Z,99115.25
2023-03-15T01:52:15.705Z,99122.59
2023-03-15T01:54:59.708Z,99116.59
2023-03-15T01:57:40.263Z,99118.19
2023-03-15T02:00:12.527Z,99119.94
2023-03-15T02:02:45.501Z,99105.50
2023-03-15T02:05:17.941Z,99107.94
2023-03-15T02:07:46.159Z,99118.78
2023-03-15T02:15:10.521Z,99117.78
2023-03-15T02:20:52.417Z,99135.22
2023-03-15T02:25:49.266Z,99129.41
2023-03-15T02:30:44.049Z,99136.53
2023-03-15T02:35:44.119Z,99133.75
2023-03-15T02:38:10.701Z,99127.13
2023-03-15T02:43:16.279Z,99121.13
2023-03-15T02:45:43.123Z,99129.41
2023-03-15T02:50:37.926Z,99123.81
2023-03-15T02:55:31.800Z,99124.53
2023-03-15T02:57:59.579Z,99116.91
2023-03-15T03:02:52.845Z,99118.28
2023-03-15T03:12:40.664Z,99121.34
2023-03-15T03:44:25.264Z,99127.59
2023-03-15T03:46:51.821Z,99131.97
2023-03-15T03:49:18.480Z,99134.09
2023-03-15T03:51:44.982Z,99133.69
2023-03-15T03:54:11.449Z,99130.34
2023-03-15T03:56:37.992Z,99134.28
2023-03-15T03:59:04.446Z,99134.75
2023-03-15T04:01:31.275Z,99145.13
2023-03-15T04:03:57.920Z,99134.69
2023-03-15T04:06:24.458Z,99134.06
2023-03-15T04:08:50.948Z,99122.88
2023-03-15T04:11:17.469Z,99126.75
2023-03-15T04:13:44.558Z,99130.22
2023-03-15T04:21:04.260Z,99131.75
2023-03-15T04:23:30.806Z,99118.47
2023-03-15T04:25:57.480Z,99121.03
2023-03-15T04:28:24.017Z,99127.97
2023-03-15T04:30:51.279Z,99126.06
2023-03-15T04:33:17.890Z,99126.75
2023-03-15T04:35:44.555Z,99143.69
2023-03-15T04:38:11.182Z,99129.97
2023-03-15T04:40:37.829Z,99137.41
2023-03-15T04:43:05.307Z,99131.56
2023-03-15T04:45:32.368Z,99132.09
2023-03-15T04:47:59.625Z,99136.56
2023-03-15T04:50:26.280Z,99129.88
2023-03-15T04:52:52.897Z,99133.50
2023-03-15T04:55:19.625Z,99134.31
2023-03-15T04:57:46.373Z,99149.88
2023-03-15T05:00:13.727Z,99142.44
2023-03-15T05:02:41.266Z,99155.09
2023-03-15T05:05:09.353Z,99153.75
2023-03-15T05:07:37.048Z,99145.50
2023-03-15T05:10:04.597Z,99145.06
2023-03-15T05:12:32.194Z,99168.59
2023-03-15T05:14:58.738Z,99146.44
2023-03-15T05:17:25.489Z,99146.22
2023-03-15T05:19:52.061Z,99145.59
2023-03-15T05:22:18.758Z,99155.22
2023-03-15T05:24:45.403Z,99146.03
2023-03-15T05:27:11.900Z,99149.84
2023-03-15T05:29:38.405Z,99150.88
2023-03-15T05:32:05.514Z,99156.63
2023-03-15T05:34:32.018Z,99157.34
2023-03-15T05:36:59.417Z,99153.63
2023-03-15T05:39:26.220Z,99150.59
2023-03-15T05:41:52.690Z,99156.91
2023-03-15T05:44:19.279Z,99141.69
2023-03-15T05:46:45.890Z,99136.81
2023-03-15T05:49:12.378Z,99144.19
2023-03-15T05:51:38.948Z,99152.41
2023-03-15T05:54:05.640Z,99141.25
2023-03-15T05:56:32.225Z,99158.53
2023-03-15T05:58:58.708Z,99163.53
2023-03-15T06:01:25.321Z,99156.72
2023-03-15T06:03:51.848Z,99153.47
2023-03-15T06:06:18.382Z,99167.44
2023-03-15T06:08:44.934Z,99156.47
2023-03-15T06:11:11.512Z,99162.91
2023-03-15T06:13:39.554Z,99165.19
2023-03-15T06:16:07.163Z,99157.56
2023-03-15T06:18:33.661Z,99158.25
2023-03-15T06:21:00.215Z,99159.34
2023-03-15T06:23:26.776Z,99154.44
2023-03-15T06:25:53.344Z,99143.78
2023-03-15T06:28:19.812Z,99157.31
2023-03-15T06:30:46.364Z,99157.09
2023-03-15T06:33:12.921Z,99162.50
2023-03-15T06:35:39.516Z,99131.56
2023-03-15T06:38:06.106Z,99138.78
2023-03-15T06:40:32.624Z,99153.97
2023-03-15T06:42:59.120Z,99161.97
2023-03-15T06:45:25.699Z,99164.19
2023-03-15T06:47:52.224Z,99164.50
2023-03-15T06:50:18.796Z,99169.91
2023-03-15T06:52:45.404Z,99174.31
2023-03-15T06:55:11.928Z,99177.47
2023-03-15T06:57:38.410Z,99177.91
2023-03-15T07:00:05.498Z,99179.53
2023-03-15T07:02:32.084Z,99181.56
2023-03-15T07:04:58.759Z,99171.66
2023-03-15T07:07:25.361Z,99179.59
2023-03-15T07:09:52.584Z,99179.47
2023-03-15T07:12:20.281Z,99185.69
2023-03-15T07:14:47.429Z,99171.94
2023-03-15T07:17:13.887Z,99189.59
2023-03-15T07:19:50.125Z,99187.56
2023-03-15T07:22:20.657Z,99185.41
2023-03-15T07:24:47.124Z,99199.84
2023-03-15T07:27:16.080Z,99184.22
2023-03-15T07:29:43.672Z,99191.19
2023-03-15T07:32:10.320Z,99181.16
2023-03-15T07:34:36.814Z,99189.78
2023-03-15T07:37:03.488Z,99191.31
2023-03-15T07:39:30.011Z,99200.13
2023-03-15T07:41:56.495Z,99191.66
2023-03-15T07:44:23.127Z,99187.19
2023-03-15T07:46:49.625Z,99193.44
2023-03-15T07:49:16.189Z,99186.31
2023-03-15T07:51:42.924Z,99194.09
2023-03-15T07:54:09.790Z,99194.66
2023-03-15T07:56:36.780Z,99197.47
2023-03-15T07:59:03.437Z,99181.13
2023-03-15T08:01:30.021Z,99184.25
2023-03-15T08:03:56.495Z,99187.41
2023-03-15T08:06:23.247Z,99188.78
2023-03-15T08:08:49.833Z,99189.72
2023-03-15T08:11:16.434Z,99180.78
2023-03-15T08:13:43.145Z,99180.28
2023-03-15T08:16:09.789Z,99194.84
2023-03-15T08:18:36.357Z,99195.88
2023-03-15T08:21:03.612Z,99194.03
2023-03-15T08:23:30.240Z,99192.69
2023-03-15T08:25:56.819Z,99188.06
2023-03-15T08:28:23.510Z,99196.88
2023-03-15T08:30:49.966Z,99186.63
2023-03-15T08:33:16.453Z,99194.88
2023-03-15T08:35:43.054Z,99183.88
2023-03-15T08:38:09.780Z,99180.28
2023-03-15T08:40:38.234Z,99187.59
2023-03-15T08:43:05.448Z,99192.28
2023-03-15T08:45:37.507Z,99191.69
2023-03-15T08:48:13.418Z,99182.97
2023-03-15T08:50:40.012Z,99183.34
2023-03-15T08:53:06.536Z,99186.56
2023-03-15T08:55:33.074Z,99178.25
2023-03-15T08:57:59.648Z,99189.59
2023-03-15T09:00:26.272Z,99194.06
2023-03-15T09:02:52.815Z,99192.84
2023-03-15T09:05:20.779Z,99200.97
2023-03-15T09:07:47.829Z,99183.13
2023-03-15T09:10:16.439Z,99171.63
2023-03-15T09:12:45.827Z,99175.69
2023-03-15T09:15:13.123Z,99198.91
2023-03-15T09:17:40.382Z,99176.53
2023-03-15T09:20:08.786Z,99181.13
2023-03-15T09:22:39.438Z,99174.78
2023-03-15T09:25:07.408Z,99186.28
2023-03-15T09:27:34.112Z,99163.72
2023-03-15T09:30:00.788Z,99164.94
2023-03-15T09:32:27.438Z,99156.06
2023-03-15T09:34:54.039Z,99173.47
2023-03-15T09:37:20.537Z,99168.22
2023-03-15T09:39:47.531Z,99160.41
2023-03-15T09:42:37.013Z,99161.91
2023-03-15T09:45:34.216Z,99165.56
2023-03-15T09:48:11.638Z,99162.00
2023-03-15T09:50:46.496Z,99176.94
2023-03-15T09:53:22.801Z,99157.72
2023-03-15T09:55:51.468Z,99175.31
2023-03-15T09:58:26.034Z,99164.72
2023-03-15T10:00:57.501Z,99167.41
2023-03-15T10:03:31.064Z,99174.16
2023-03-15T10:06:02.968Z,99163.28
2023-03-15T10:08:29.811Z,99165.50
2023-03-15T10:11:29.836Z,99156.38
2023-03-15T10:14:12.472Z,99172.88
2023-03-15T10:16:57.122Z,99172.41
2023-03-15T10:19:39.604Z,99164.16
2023-03-15T10:22:30.653Z,99165.31
2023-03-15T10:25:12.698Z,99154.25
2023-03-15T10:27:47.742Z,99159.22
2023-03-15T10:30:18.711Z,99171.72
2023-03-15T10:32:50.975Z,99158.28
2023-03-15T10:35:19.627Z,99164.69
2023-03-15T10:37:46.192Z,99159.75
2023-03-15T10:40:14.549Z,99158.50
2023-03-15T10:42:42.963Z,99154.81
2023-03-15T10:45:22.077Z,99163.13
2023-03-15T10:47:57.532Z,99148.00
2023-03-15T10:50:32.307Z,99159.69
2023-03-15T10:53:10.129Z,99153.28
2023-03-15T10:55:43.101Z,99154.81
2023-03-15T10:58:25.846Z,99141.09
2023-03-15T11:01:07.356Z,99156.31
2023-03-15T11:03:34.716Z,99173.72
2023-03-15T11:06:02.086Z,99178.44
2023-03-15T11:08:42.044Z,99183.38
2023-03-15T11:11:09.259Z,99174.28
2023-03-15T11:13:38.281Z,99167.78
2023-03-15T11:16:07.630Z,99163.94
2023-03-15T11:18:46.118Z,99179.00
2023-03-15T11:23:44.024Z,99174.69
2023-03-15T11:26:33.097Z,99171.41
2023-03-15T11:29:27.796Z,99163.06
2023-03-15T11:31:55.918Z,99174.16
2023-03-15T11:34:22.454Z,99179.41
2023-03-15T11:37:05.567Z,99167.97
2023-03-15T11:39:40.962Z,99171.22
2023-03-15T11:42:14.818Z,99155.47
2023-03-15T11:44:47.708Z,99153.00
2023-03-15T11:47:28.124Z,99156.44
2023-03-15T11:49:56.929Z,99154.50
2023-03-15T11:52:25.991Z,99150.88
2023-03-15T11:54:59.619Z,99157.47
2023-03-15T11:57:28.868Z,99148.97
2023-03-15T11:59:56.628Z,99142.41
2023-03-15T12:02:23.099Z,99150.19
2023-03-15T12:04:51.439Z,99148.81
2023-03-15T12:07:17.928Z,99144.94
2023-03-15T12:09:48.679Z,99148.22
2023-03-15T12:12:24.019Z,99150.41
2023-03-15T12:15:15.279Z,99149.81
2023-03-15T12:17:55.381Z,99145.22
2023-03-15T12:20:39.110Z,99138.13
2023-03-15T12:23:17.769Z,99146.41
2023-03-15T12:26:02.501Z,99139.75
2023-03-15T12:28:50.552Z,99146.22
2023-03-15T12:31:17.985Z,99142.75
2023-03-15T12:33:48.781Z,99130.38
2023-03-15T12:36:21.101Z,99122.91
2023-03-15T12:38:59.853Z,99142.16
2023-03-15T12:41:41.955Z,99144.59
2023-03-15T12:44:25.088Z,99139.56
2023-03-15T12:46:51.604Z,99133.78
2023-03-15T12:49:24.109Z,99127.22
2023-03-15T12:52:16.954Z,99134.88
2023-03-15T12:55:07.226Z,99125.59
2023-03-15T12:57:48.252Z,99129.38
2023-03-15T13:00:21.376Z,99137.47
2023-03-15T13:03:05.523Z,99125.41
2023-03-15T13:05:39.992Z,99138.91
2023-03-15T13:08:29.392Z,99141.09
2023-03-15T13:11:11.180Z,99132.44
2023-03-15T13:13:50.418Z,99136.94
2023-03-15T13:16:39.005Z,99108.34
2023-03-15T13:19:19.538Z,99116.34
2023-03-15T13:22:00.169Z,99110.56
2023-03-15T13:24:43.883Z,99113.72
2023-03-15T13:27:36.496Z,99115.59
2023-03-15T13:30:23.259Z,99120.66
2023-03-15T13:33:02.435Z,99122.84
2023-03-15T13:35:29.137Z,99121.25
2023-03-15T13:38:39.243Z,99110.94
2023-03-15T13:41:16.468Z,99115.78
2023-03-15T13:43:43.525Z,99111.41
2023-03-15T13:46:10.399Z,99116.81
2023-03-15T13:48:40.860Z,99116.13
2023-03-15T13:51:25.165Z,99105.91
2023-03-15T13:53:55.554Z,99106.31
2023-03-15T13:56:37.433Z,99098.44
2023-03-15T13:59:10.756Z,99097.75
2023-03-15T14:01:39.858Z,99094.38
2023-03-15T14:04:10.685Z,99098.09
2023-03-15T14:06:37.271Z,99092.66
2023-03-15T14:09:17.247Z,99103.00
2023-03-15T14:11:43.975Z,99089.59
2023-03-15T14:14:17.745Z,99100.28
2023-03-15T14:17:03.090Z,99082.69
2023-03-15T14:19:34.661Z,99102.53
2023-03-15T14:22:04.893Z,99081.44
2023-03-15T14:24:37.728Z,99080.50
2023-03-15T14:27:13.110Z,99078.72
2023-03-15T14:29:46.878Z,99075.94
2023-03-15T14:32:31.428Z,99091.78
2023-03-15T14:35:02.259Z,99078.28
2023-03-15T14:37:37.755Z,99088.59
2023-03-15T14:40:32.787Z,99068.00
2023-03-15T14:43:00.198Z,99087.09
2023-03-15T14:45:26.844Z,99084.06
2023-03-15T14:48:03.018Z,99073.94
2023-03-15T14:50:34.312Z,99081.88
2023-03-15T14:53:02.126Z,99068.25
2023-03-15T14:55:32.358Z,99076.44
2023-03-15T14:57:58.919Z,99075.22
2023-03-15T15:00:25.692Z,99081.41
2023-03-15T15:02:55.413Z,99075.91
2023-03-15T15:05:28.019Z,99079.09
2023-03-15T15:08:09.508Z,99083.97
2023-03-15T15:10:36.888Z,99081.88
2023-03-15T15:13:06.818Z,99092.13
2023-03-15T15:15:44.045Z,99095.53
2023-03-15T15:18:20.857Z,99091.31
2023-03-15T15:20:47.572Z,99095.19
2023-03-15T15:23:23.469Z,99098.97
2023-03-15T15:25:53.256Z,99098.63
2023-03-15T15:28:33.237Z,99094.88
2023-03-15T15:31:01.394Z,99092.31
2023-03-15T15:33:28.090Z,99109.19
2023-03-15T15:35:56.245Z,99100.28
2023-03-15T15:38:31.356Z,99092.66
2023-03-15T15:40:57.989Z,99105.97
2023-03-15T15:43:24.535Z,99097.19
2023-03-15T15:45:51.184Z,99099.97
2023-03-15T15:48:17.663Z,99099.16
2023-03-15T15:50:44.207Z,99117.34
2023-03-15T15:53:16.500Z,99107.59
2023-03-15T15:55:43.100Z,99114.44
2023-03-15T15:58:11.968Z,99103.72
2023-03-15T16:00:38.706Z,99117.66
2023-03-15T16:03:12.882Z,99119.13
2023-03-15T16:05:39.468Z,99119.94
2023-03-15T16:08:07.043Z,99119.94
2023-03-15T16:10:33.664Z,99113.13
2023-03-15T16:13:03.042Z,99112.47
2023-03-15T16:15:29.723Z,99109.25
2023-03-15T16:17:56.257Z,99110.53
2023-03-15T16:20:22.872Z,99118.31
2023-03-15T16:22:55.745Z,99111.81
2023-03-15T16:25:26.571Z,99100.41
2023-03-15T16:27:55.232Z,99106.91
2023-03-15T16:30:27.232Z,99116.00
2023-03-15T16:32:54.470Z,99109.00
2023-03-15T16:35:26.925Z,99107.97
2023-03-15T16:37:56.824Z,99096.91
2023-03-15T16:40:32.093Z,99103.25
2023-03-15T16:42:59.574Z,99096.69
2023-03-15T16:45:27.121Z,99111.31
2023-03-15T16:47:53.928Z,99110.81
2023-03-15T16:50:20.708Z,99105.47
2023-03-15T16:52:50.148Z,99107.38
2023-03-15T16:55:21.322Z,99105.41
2023-03-15T16:57:47.888Z,99105.09
2023-03-15T17:00:15.644Z,99107.69
2023-03-15T17:02:44.926Z,99095.63
2023-03-15T17:05:11.630Z,99096.31
2023-03-15T17:07:39.144Z,99101.28
2023-03-15T17:10:09.904Z,99088.78
2023-03-15T17:12:37.723Z,99098.06
2023-03-15T17:15:08.169Z,99099.53
2023-03-15T17:17:34.651Z,99092.72
2023-03-15T17:20:01.203Z,99095.78
2023-03-15T17:22:28.206Z,99089.13
2023-03-15T17:24:54.844Z,99094.81
2023-03-15T17:27:34.630Z,99092.72
2023-03-15T17:30:01.221Z,99089.88
2023-03-15T17:32:27.911Z,99091.13
2023-03-15T17:34:54.970Z,99098.78
2023-03-15T17:37:21.444Z,99093.59
2023-03-15T17:39:48.045Z,99083.69
2023-03-15T17:42:15.352Z,99074.94
2023-03-15T17:44:42.573Z,99085.34
2023-03-15T17:47:12.857Z,99085.81
2023-03-15T17:49:39.686Z,99105.63
2023-03-15T17:52:14.092Z,99079.81
2023-03-15T17:54:40.764Z,99084.16
2023-03-15T17:57:07.268Z,99075.72
2023-03-15T17:59:33.733Z,99082.50
2023-03-15T18:02:00.308Z,99084.47
2023-03-15T18:04:26.965Z,99086.72
2023-03-15T18:06:53.557Z,99082.16
2023-03-15T18:09:20.014Z,99085.69
2023-03-15T18:11:46.749Z,99087.53
2023-03-15T18:14:15.447Z,99092.56
2023-03-15T18:16:42.837Z,99091.22
2023-03-15T18:19:09.603Z,99079.81
2023-03-15T18:21:36.105Z,99094.81
2023-03-15T18:24:02.597Z,99089.75
2023-03-15T18:26:29.114Z,99085.03
2023-03-15T18:28:55.604Z,99085.50
2023-03-15T18:31:24.743Z,99086.31
2023-03-15T18:33:52.808Z,99087.78
2023-03-15T18:36:19.867Z,99095.50
2023-03-15T18:38:46.435Z,99082.59
2023-03-15T18:41:21.029Z,99090.22
2023-03-15T18:43:48.701Z,99085.81
2023-03-15T18:46:20.423Z,99088.94
2023-03-15T18:48:48.406Z,99082.78
2023-03-15T18:51:16.150Z,99080.66
2023-03-15T18:53:43.457Z,99076.91
2023-03-15T18:56:18.503Z,99063.44
2023-03-15T18:58:46.545Z,99056.91
2023-03-15T19:01:13.149Z,99065.84
2023-03-15T19:03:39.690Z,99065.28
2023-03-15T19:06:08.453Z,99071.72
2023-03-15T19:08:35.246Z,99072.53
2023-03-15T19:11:02.596Z,99068.59
2023-03-15T19:13:29.924Z,99064.22
2023-03-15T19:15:56.601Z,99060.31
2023-03-15T19:18:23.696Z,99065.38
2023-03-15T19:20:52.086Z,99058.53
2023-03-15T19:23:19.761Z,99055.94
2023-03-15T19:25:47.741Z,99057.50
2023-03-15T19:28:14.661Z,99060.72
2023-03-15T19:30:41.500Z,99054.00
2023-03-15T19:33:08.778Z,99063.59
2023-03-15T19:35:35.336Z,99067.56
2023-03-15T19:38:01.843Z,99053.66
2023-03-15T19:40:28.619Z,99049.78
2023-03-15T19:42:55.089Z,99042.50
2023-03-15T19:45:21.614Z,99050.13
2023-03-15T19:47:48.141Z,99060.53
2023-03-15T19:50:15.200Z,99040.38
2023-03-15T19:52:42.198Z,99040.88
2023-03-15T19:55:08.790Z,99046.88
2023-03-15T19:57:35.272Z,99048.81
2023-03-15T20:00:01.790Z,99049.47
2023-03-15T20:02:28.438Z,99049.94
2023-03-15T20:04:54.898Z,99053.69
2023-03-15T20:07:21.366Z,99050.75
2023-03-15T20:09:47.917Z,99059.53
2023-03-15T20:12:14.394Z,99057.59
2023-03-15T20:14:41.108Z,99050.44
2023-03-15T20:17:07.996Z,99060.66
2023-03-15T20:19:34.603Z,99056.59
2023-03-15T20:22:01.120Z,99053.34
2023-03-15T20:24:27.606Z,99056.25
2023-03-15T20:26:54.218Z,99054.16
2023-03-15T20:29:20.718Z,99042.94
2023-03-15T20:31:48.013Z,99076.91
2023-03-15T20:34:16.473Z,99044.91
2023-03-15T20:36:42.962Z,99049.75
2023-03-15T20:39:09.484Z,99048.94
2023-03-15T20:41:36.043Z,99044.25
2023-03-15T20:44:02.573Z,99049.94
2023-03-15T20:46:29.237Z,99061.63
2023-03-15T20:48:56.009Z,99051.34
2023-03-15T20:51:22.484Z,99052.34
2023-03-15T20:53:49.253Z,99050.41
2023-03-15T20:56:15.786Z,99046.44
2023-03-15T20:58:42.270Z,99048.44
2023-03-15T21:01:11.512Z,99043.94
2023-03-15T21:03:38.097Z,99042.00
2023-03-15T21:06:05.964Z,99046.34
2023-03-15T21:08:33.599Z,99046.66
2023-03-15T21:11:00.873Z,99044.91
2023-03-15T21:13:27.481Z,99044.56
2023-03-15T21:15:54.914Z,99046.53
2023-03-15T21:18:23.797Z,99044.91
2023-03-15T21:20:58.940Z,99040.00
2023-03-15T21:23:26.375Z,99042.28
2023-03-15T21:25:55.628Z,99034.97
2023-03-15T21:28:23.058Z,99025.22
2023-03-15T21:30:57.188Z,99031.38
2023-03-15T21:33:26.104Z,99028.31
2023-03-15T21:35:53.050Z,99030.41
2023-03-15T21:38:19.612Z,99035.13
2023-03-15T21:40:48.396Z,99036.91
2023-03-15T21:43:14.891Z,99022.81
2023-03-15T21:45:41.700Z,99026.41
2023-03-15T21:48:08.780Z,99023.31
2023-03-15T21:50:35.447Z,99025.44
2023-03-15T21:53:02.101Z,99031.91
2023-03-15T21:55:28.784Z,99028.50
2023-03-15T21:57:55.270Z,99026.09
2023-03-15T22:00:22.300Z,99027.53
2023-03-15T22:02:48.995Z,99014.75
2023-03-15T22:05:15.569Z,99022.88
2023-03-15T22:07:42.405Z,99009.88
2023-03-15T22:10:10.592Z,99016.03
2023-03-15T22:12:39.109Z,99016.69
2023-03-15T22:15:07.025Z,99020.72
2023-03-15T22:17:34.207Z,99025.13
2023-03-15T22:20:01.060Z,99035.19
2023-03-15T22:22:28.013Z,99024.63
2023-03-15T22:24:54.620Z,99033.13
2023-03-15T22:27:21.095Z,99035.91
2023-03-15T22:29:47.580Z,99029.75
2023-03-15T22:32:14.278Z,99026.34
2023-03-15T22:34:40.792Z,99013.84
2023-03-15T22:37:07.347Z,99009.44
2023-03-15T22:39:34.203Z,99009.97
2023-03-15T22:42:00.711Z,99012.56
2023-03-15T22:44:29.442Z,99015.66
2023-03-15T22:46:57.036Z,99009.97
2023-03-15T22:49:23.555Z,99005.72
2023-03-15T22:51:50.037Z,99013.69
2023-03-15T22:54:16.575Z,99009.81
2023-03-15T22:56:43.102Z,99014.34
2023-03-15T22:59:09.898Z,99009.31
2023-03-15T23:01:36.548Z,99012.06
2023-03-15T23:04:03.112Z,99021.78
2023-03-15T23:06:29.606Z,99014.31
2023-03-15T23:08:56.121Z,99011.91
2023-03-15T23:11:22.638Z,99011.09
2023-03-15T23:13:49.547Z,99011.91
2023-03-15T23:16:17.452Z,99017.28
2023-03-15T23:18:43.990Z,99005.09
2023-03-15T23:21:12.942Z,99000.41
2023-03-15T23:23:39.476Z,98997.63
2023-03-15T23:26:06.718Z,99008.66
2023-03-15T23:28:33.871Z,99011.59
2023-03-15T23:31:04.907Z,99011.09
2023-03-15T23:33:32.503Z,99009.16
2023-03-15T23:35:59.138Z,99005.25
2023-03-15T23:38:25.696Z,99006.81
2023-03-15T23:40:56.567Z,99008.06
2023-03-15T23:43:23.387Z,99002.00
2023-03-15T23:45:55.402Z,99010.28
2023-03-15T23:48:21.904Z,99002.00
2023-03-15T23:50:57.246Z,99000.91
2023-03-15T23:53:25.173Z,98990.06
2023-03-15T23:55:52.988Z,98999.47
2023-03-15T23:58:20.500Z,98994.63
